Flight Track Log - Related Links

Times and Time Zones

All times are in EDT time to prevent confusion due to time zone crossing. See the N233PC flight status page for this flight to view local times or setup timezone preferences in your user account.

Time Position Orientation Groundspeed Altitude Reporting Facility
EDT Latitude Longitude Course Direction KTS MPH feet Rate Location/Type
Fri 11:16:33 AM 24.2325 -76.6447 305° West 172 198 7,300  Level Miami Center
Fri 11:17:33 AM 24.2556 -76.6811 305° West 160 184 7,600 300 Climbing Miami Center
Fri 11:18:33 AM 24.2850 -76.7083 320° Northwest 147 169 7,900 150 Climbing Miami Center
Fri 11:19:33 AM 24.3122 -76.7425 311° West 147 169 7,900  Level Miami Center
Fri 11:20:33 AM 24.3414 -76.7767 313° West 147 169 7,900  Level Miami Center
Fri 11:21:33 AM 24.3706 -76.8131 311° West 152 175 7,900  Level Miami Center
Fri 11:22:33 AM 24.3958 -76.8497 307° West 157 181 7,900  Level Miami Center
Fri 11:23:33 AM 24.4250 -76.8861 311° West 157 181 7,900  Level Miami Center
Fri 11:24:33 AM 24.4564 -76.9206 315° West 157 181 7,900  Level Miami Center
Fri 11:25:33 AM 24.4836 -76.9569 309° West 157 181 7,900  Level Miami Center
Fri 11:26:33 AM 24.5128 -76.9889 315° West 157 181 7,900  Level Miami Center
Fri 11:27:33 AM 24.5400 -77.0256 309° West 157 181 7,900  Level Miami Center
Fri 11:28:33 AM 24.5711 -77.0622 313° West 157 181 7,900  Level Miami Center
Fri 11:29:33 AM 24.5961 -77.0964 309° West 157 181 7,900  Level Miami Center
Fri 11:30:33 AM 24.6275 -77.1331 313° West 157 181 7,900  Level Miami Center
Fri 11:31:33 AM 24.6547 -77.1675 311° West 157 181 7,900  Level Miami Center
Fri 11:32:33 AM 24.6858 -77.2042 313° West 157 181 7,900  Level Miami Center
Fri 11:33:33 AM 24.7150 -77.2431 310° West 162 186 7,900  Level Miami Center
Fri 11:34:33 AM 24.7442 -77.2775 313° West 162 186 7,900  Level Miami Center
Fri 11:35:33 AM 24.7733 -77.3142 311° West 162 186 7,900  Level Miami Center
Fri 11:36:33 AM 24.8006 -77.3533 307° West 162 186 7,900  Level Miami Center
Fri 11:37:33 AM 24.8317 -77.3878 315° West 162 186 7,900  Level Miami Center
Fri 11:38:33 AM 24.8608 -77.4244 311° West 162 186 7,900  Level Miami Center
Fri 11:39:33 AM 24.8900 -77.4614 311° West 162 186 7,900  Level Miami Center
Fri 11:40:33 AM 24.9189 -77.4981 311° West 162 186 7,900  Level Miami Center
Fri 11:41:33 AM 24.9503 -77.5350 313° West 162 186 7,900  Level Miami Center
Fri 11:42:33 AM 24.9792 -77.5719 311° West 162 186 7,900  Level Miami Center
Fri 11:43:33 AM 25.0083 -77.6086 311° West 162 186 7,900  Level Miami Center
Fri 11:44:33 AM 25.0353 -77.6408 313° West 162 186 7,900  Level Miami Center
Fri 11:45:33 AM 25.0644 -77.6778 311° West 162 186 7,900  Level Miami Center
Fri 11:46:33 AM 25.0936 -77.7147 311° West 162 186 7,900  Level Miami Center
Fri 11:47:33 AM 25.1247 -77.7494 315° West 162 186 7,900  Level Miami Center
Fri 11:48:33 AM 25.1517 -77.7864 309° West 157 181 7,900  Level Miami Center
Fri 11:49:33 AM 25.1828 -77.8256 311° West 162 186 7,900  Level Miami Center
Fri 11:50:33 AM 25.2117 -77.8625 311° West 162 186 7,900 50 Level Miami Center
Fri 11:51:33 AM 25.2428 -77.8997 313° West 162 186 8,000  Climbing Miami Center
Fri 11:52:33 AM 25.2697 -77.9344 311° West 162 186 7,900 -50 Descending Miami Center
Fri 11:53:33 AM 25.3008 -77.9714 313° West 162 186 7,900  Level Miami Center
Fri 11:54:33 AM 25.3297 -78.0083 311° West 162 186 7,900  Level Miami Center
Fri 11:55:33 AM 25.3567 -78.0456 309° West 162 186 7,900  Level Miami Center
Fri 11:56:33 AM 25.3878 -78.0803 315° West 162 186 7,900 50 Level Miami Center
Fri 11:57:33 AM 25.4144 -78.1197 307° West 162 186 8,000 50 Climbing Miami Center
Fri 11:58:33 AM 25.4436 -78.1522 315° West 157 181 8,000 -50 Level Miami Center
Fri 11:59:33 AM 25.4914 -78.1756 336° Northwest 157 181 7,900 -50 Descending Miami Center
Fri 12:00:33 PM 25.5014 -78.2242 283° West 157 181 7,900  Level Miami Center
Fri 12:01:33 PM 25.5303 -78.2614 311° West 157 181 7,900  Level Miami Center
Fri 12:02:33 PM 25.5569 -78.2983 309° West 157 181 7,900  Level Miami Center
Fri 12:03:33 PM 25.5861 -78.3311 315° West 157 181 7,900  Level Miami Center
Fri 12:04:33 PM 25.6150 -78.3683 311° West 157 181 7,900  Level Miami Center
Fri 12:05:33 PM 25.6436 -78.4056 310° West 157 181 7,900  Level Miami Center
Fri 12:06:33 PM 25.6747 -78.4428 313° West 157 181 7,900 50 Level Miami Center
Fri 12:07:33 PM 25.7036 -78.4800 311° West 157 181 8,000 50 Climbing Miami Center
Fri 12:08:33 PM 25.7281 -78.5197 304° West 157 181 8,000  Level Miami Center
Fri 12:09:33 PM 25.7592 -78.5569 313° West 157 181 8,000  Level Miami Center
Fri 12:10:33 PM 25.7878 -78.5944 310° West 157 181 8,000  Level Miami Center
Fri 12:11:33 PM 25.8147 -78.6317 309° West 157 181 8,000  Level Miami Center
Fri 12:12:33 PM 25.8456 -78.6667 314° West 157 181 8,000  Level Miami Center
Fri 12:13:33 PM 25.8744 -78.7042 311° West 157 181 8,000  Level Miami Center
Fri 12:14:33 PM 25.9094 -78.7369 320° Northwest 157 181 8,000  Level Miami Center
Fri 12:15:33 PM 25.9361 -78.7744 308° West 157 181 8,000  Level Miami Center
Fri 12:16:33 PM 25.9606 -78.8142 304° West 157 181 8,000  Level Miami Center
Fri 12:17:33 PM 25.9831 -78.8561 301° West 157 181 8,000  Level Miami Center
Fri 12:18:33 PM 26.0075 -78.8981 303° West 157 181 8,000  Level Miami Center
Fri 12:19:33 PM 26.0361 -78.9472 303° West 157 181 8,000  Level Miami Center
Fri 12:20:33 PM 26.0606 -78.9869 304° West 157 181 8,000  Level Miami Center
Fri 12:21:33 PM 26.0808 -79.0267 300° West 163 188 8,000  Level Miami Center
Fri 12:22:33 PM 26.1053 -79.0686 303° West 163 188 8,000 -50 Level Miami Center
Fri 12:23:33 PM 26.1297 -79.1083 304° West 163 188 7,900 -300 Descending Miami Center
Fri 12:24:33 PM 26.1522 -79.1528 299° West 163 188 7,400 -450 Descending Miami Center
Fri 12:25:33 PM 26.1767 -79.1950 303° West 168 193 7,000 -450 Descending Miami Center
Fri 12:26:33 PM 26.2050 -79.2394 305° West 168 193 6,500 -450 Descending Miami Center
Fri 12:27:33 PM 26.2272 -79.2839 299° West 168 193 6,100 -500 Descending Miami Center
Fri 12:28:33 PM 26.2517 -79.3286 301° West 163 188 5,500 -550 Descending Miami Center
Fri 12:29:33 PM 26.2739 -79.3683 302° West 163 188 5,000 -500 Descending Miami Center
Fri 12:30:33 PM 26.2983 -79.4128 302° West 168 193 4,500 -500 Descending Miami Center
Fri 12:31:33 PM 26.3225 -79.4550 303° West 166 191 4,000 -250 Descending Miami Center
Fri 12:32:33 PM 26.3467 -79.5019 300° West 161 185 4,000  Level Miami Center
Fri 12:33:33 PM 26.3711 -79.5397 306° West 161 185 4,000  Level Miami Center
Fri 12:34:33 PM 26.3975 -79.5844 303° West 161 185 4,000  Level Miami Center
Fri 12:35:33 PM 26.4178 -79.6194 303° West 161 185 4,000 -50 Level Miami Center
Fri 12:36:33 PM 26.4397 -79.6664 298° West 161 185 3,900 -250 Descending Miami Center
Fri 12:37:33 PM 26.4619 -79.7042 303° West 166 191 3,500 -450 Descending Miami Center
Fri 12:38:33 PM 26.4883 -79.7536 301° West 166 191 3,000 -250 Descending Miami Center
Fri 12:39:33 PM 26.5083 -79.7911 301° West 166 191 3,000  Level Miami Center
Fri 12:41:00 PM 26.5560 -79.8619 299° West  Level FlightAware Approximate
Fri 12:48:00 PM 26.6667 -80.0833 North  Level FlightAware Approximate
Fri 12:49:00 PM 26.6832 -80.0956 North  Level Estimated
Fri 12:50:00 PM 26.6832 -80.0956 North  Level Estimated
Fri 12:51:00 PM 26.6832 -80.0956 North  Level Estimated
Fri 12:52:00 PM 26.6832 -80.0956 North  Level Estimated
Fri 12:53:00 PM 26.6832 -80.0956 North  Level Estimated
Fri 12:54:00 PM 26.6832 -80.0956 North  Level Estimated
Fri 12:55:00 PM 26.6832 -80.0956 North  Level Estimated
Fri 12:56:00 PM 26.6832 -80.0956 North  Level Estimated

Login

Don't have an account? Register now (free) for customized features, flight alerts, and more!